Terminal Aerodrome Forecast
Issued by NWS

Current Version | Previous Version | Text Only | Print | Product List | Glossary On
Versions: 1 2 3 4 5 6 7 8 9 10 11 12 13
235
FTUS42 KTBW 171141
TAFPIE
TAF
KPIE 171141Z 1712/1812 36006KT P6SM FEW250
     FM171400 34008KT P6SM SCT035 BKN250
     FM171800 32016G25KT P6SM BKN035 BKN250
     FM180100 34014G22KT P6SM FEW030 SCT250=

USA.gov is the U.S. government's official web portal to all federal, state and local government web resources and services.